sensor_id;sensor_type;location;lat;lon;timestamp;P1;durP1;ratioP1;P2;durP2;ratioP2
21089;SDS011;10703;51.020;6.128;2023-03-14T00:01:24;5.37;;;4.70;;
21089;SDS011;10703;51.020;6.128;2023-03-14T00:03:51;4.53;;;4.13;;
21089;SDS011;10703;51.020;6.128;2023-03-14T00:06:17;4.40;;;4.07;;
21089;SDS011;10703;51.020;6.128;2023-03-14T00:08:45;5.00;;;4.60;;
21089;SDS011;10703;51.020;6.128;2023-03-14T00:11:13;4.90;;;4.50;;
21089;SDS011;10703;51.020;6.128;2023-03-14T00:13:41;4.57;;;4.27;;
21089;SDS011;10703;51.020;6.128;2023-03-14T00:16:09;5.30;;;4.80;;
21089;SDS011;10703;51.020;6.128;2023-03-14T00:18:38;6.47;;;4.30;;
21089;SDS011;10703;51.020;6.128;2023-03-14T00:21:06;6.40;;;5.13;;
21089;SDS011;10703;51.020;6.128;2023-03-14T00:23:34;5.10;;;4.60;;
21089;SDS011;10703;51.020;6.128;2023-03-14T00:26:06;4.90;;;4.40;;
21089;SDS011;10703;51.020;6.128;2023-03-14T00:28:35;5.83;;;4.00;;
21089;SDS011;10703;51.020;6.128;2023-03-14T00:31:02;4.50;;;4.10;;
21089;SDS011;10703;51.020;6.128;2023-03-14T00:33:30;4.40;;;4.03;;
21089;SDS011;10703;51.020;6.128;2023-03-14T00:35:57;10.83;;;4.30;;
21089;SDS011;10703;51.020;6.128;2023-03-14T00:38:26;13.13;;;4.33;;
21089;SDS011;10703;51.020;6.128;2023-03-14T00:40:53;4.50;;;3.53;;
21089;SDS011;10703;51.020;6.128;2023-03-14T00:43:20;4.93;;;4.30;;
21089;SDS011;10703;51.020;6.128;2023-03-14T00:45:50;8.93;;;4.20;;
21089;SDS011;10703;51.020;6.128;2023-03-14T00:48:18;4.00;;;3.70;;
21089;SDS011;10703;51.020;6.128;2023-03-14T00:50:45;4.23;;;3.80;;
21089;SDS011;10703;51.020;6.128;2023-03-14T00:53:12;4.83;;;3.80;;
21089;SDS011;10703;51.020;6.128;2023-03-14T00:55:39;5.00;;;3.93;;
21089;SDS011;10703;51.020;6.128;2023-03-14T00:58:08;3.97;;;3.63;;
21089;SDS011;10703;51.020;6.128;2023-03-14T01:00:36;8.47;;;4.00;;
21089;SDS011;10703;51.020;6.128;2023-03-14T01:03:03;10.83;;;4.00;;
21089;SDS011;10703;51.020;6.128;2023-03-14T01:05:30;11.53;;;4.50;;
21089;SDS011;10703;51.020;6.128;2023-03-14T01:07:56;7.13;;;4.30;;
21089;SDS011;10703;51.020;6.128;2023-03-14T01:10:23;7.50;;;4.20;;
21089;SDS011;10703;51.020;6.128;2023-03-14T01:12:50;10.40;;;5.07;;
21089;SDS011;10703;51.020;6.128;2023-03-14T01:15:17;6.53;;;4.40;;
21089;SDS011;10703;51.020;6.128;2023-03-14T01:17:43;8.47;;;4.50;;
21089;SDS011;10703;51.020;6.128;2023-03-14T01:20:12;8.90;;;4.67;;
21089;SDS011;10703;51.020;6.128;2023-03-14T01:22:39;6.30;;;4.93;;
21089;SDS011;10703;51.020;6.128;2023-03-14T01:25:08;7.57;;;4.40;;
21089;SDS011;10703;51.020;6.128;2023-03-14T01:27:36;5.13;;;4.30;;
21089;SDS011;10703;51.020;6.128;2023-03-14T01:30:03;8.07;;;4.63;;
21089;SDS011;10703;51.020;6.128;2023-03-14T01:32:30;8.53;;;4.80;;
21089;SDS011;10703;51.020;6.128;2023-03-14T01:34:57;10.07;;;4.40;;
21089;SDS011;10703;51.020;6.128;2023-03-14T01:37:23;10.47;;;4.93;;
21089;SDS011;10703;51.020;6.128;2023-03-14T01:39:50;10.90;;;4.60;;
21089;SDS011;10703;51.020;6.128;2023-03-14T01:42:16;6.87;;;5.03;;
21089;SDS011;10703;51.020;6.128;2023-03-14T01:45:01;5.30;;;4.13;;
21089;SDS011;10703;51.020;6.128;2023-03-14T01:47:28;9.57;;;4.67;;
21089;SDS011;10703;51.020;6.128;2023-03-14T01:52:37;7.00;;;4.70;;
21089;SDS011;10703;51.020;6.128;2023-03-14T01:55:12;5.17;;;4.70;;
21089;SDS011;10703;51.020;6.128;2023-03-14T01:57:47;6.67;;;4.83;;
21089;SDS011;10703;51.020;6.128;2023-03-14T02:00:25;9.30;;;5.00;;
21089;SDS011;10703;51.020;6.128;2023-03-14T02:02:55;5.97;;;4.33;;
21089;SDS011;10703;51.020;6.128;2023-03-14T02:05:30;7.90;;;4.10;;
21089;SDS011;10703;51.020;6.128;2023-03-14T02:08:00;7.00;;;4.57;;
21089;SDS011;10703;51.020;6.128;2023-03-14T02:10:34;5.80;;;4.47;;
21089;SDS011;10703;51.020;6.128;2023-03-14T02:13:04;8.30;;;4.80;;
21089;SDS011;10703;51.020;6.128;2023-03-14T02:15:32;7.57;;;4.30;;
21089;SDS011;10703;51.020;6.128;2023-03-14T02:17:59;7.93;;;4.53;;
21089;SDS011;10703;51.020;6.128;2023-03-14T02:29:06;5.67;;;4.57;;
21089;SDS011;10703;51.020;6.128;2023-03-14T02:31:33;7.00;;;4.80;;
21089;SDS011;10703;51.020;6.128;2023-03-14T02:34:00;9.03;;;4.17;;
21089;SDS011;10703;51.020;6.128;2023-03-14T02:36:28;8.23;;;4.90;;
21089;SDS011;10703;51.020;6.128;2023-03-14T02:39:15;9.43;;;5.17;;
21089;SDS011;10703;51.020;6.128;2023-03-14T02:42:00;7.23;;;4.40;;
21089;SDS011;10703;51.020;6.128;2023-03-14T02:44:27;4.43;;;4.13;;
21089;SDS011;10703;51.020;6.128;2023-03-14T02:46:54;7.43;;;4.53;;
21089;SDS011;10703;51.020;6.128;2023-03-14T02:49:20;9.47;;;4.50;;
21089;SDS011;10703;51.020;6.128;2023-03-14T02:51:47;7.83;;;5.13;;
21089;SDS011;10703;51.020;6.128;2023-03-14T02:54:14;15.37;;;5.60;;
21089;SDS011;10703;51.020;6.128;2023-03-14T02:56:41;11.20;;;5.23;;
21089;SDS011;10703;51.020;6.128;2023-03-14T02:59:08;11.90;;;5.40;;
21089;SDS011;10703;51.020;6.128;2023-03-14T03:01:34;4.67;;;4.27;;
21089;SDS011;10703;51.020;6.128;2023-03-14T03:04:01;12.33;;;5.10;;
21089;SDS011;10703;51.020;6.128;2023-03-14T03:06:28;8.47;;;5.30;;
21089;SDS011;10703;51.020;6.128;2023-03-14T03:08:54;6.40;;;5.00;;
21089;SDS011;10703;51.020;6.128;2023-03-14T03:11:21;5.00;;;4.60;;
21089;SDS011;10703;51.020;6.128;2023-03-14T03:13:48;5.87;;;4.67;;
21089;SDS011;10703;51.020;6.128;2023-03-14T03:16:14;6.07;;;4.63;;
21089;SDS011;10703;51.020;6.128;2023-03-14T03:18:41;6.63;;;5.00;;
21089;SDS011;10703;51.020;6.128;2023-03-14T03:21:08;7.53;;;5.10;;
21089;SDS011;10703;51.020;6.128;2023-03-14T03:23:35;8.93;;;5.57;;
21089;SDS011;10703;51.020;6.128;2023-03-14T03:26:02;7.87;;;5.07;;
21089;SDS011;10703;51.020;6.128;2023-03-14T03:28:29;6.97;;;4.80;;
21089;SDS011;10703;51.020;6.128;2023-03-14T03:30:55;11.13;;;5.00;;
21089;SDS011;10703;51.020;6.128;2023-03-14T03:33:22;14.47;;;4.70;;
21089;SDS011;10703;51.020;6.128;2023-03-14T03:35:50;11.37;;;5.20;;
21089;SDS011;10703;51.020;6.128;2023-03-14T03:38:17;9.47;;;4.77;;
21089;SDS011;10703;51.020;6.128;2023-03-14T03:40:43;8.80;;;4.83;;
21089;SDS011;10703;51.020;6.128;2023-03-14T03:43:10;11.00;;;4.47;;
21089;SDS011;10703;51.020;6.128;2023-03-14T03:45:36;6.30;;;4.27;;
21089;SDS011;10703;51.020;6.128;2023-03-14T03:48:03;11.10;;;4.47;;
21089;SDS011;10703;51.020;6.128;2023-03-14T03:50:30;9.33;;;5.10;;
21089;SDS011;10703;51.020;6.128;2023-03-14T03:52:56;9.67;;;4.60;;
21089;SDS011;10703;51.020;6.128;2023-03-14T03:55:23;14.40;;;4.63;;
21089;SDS011;10703;51.020;6.128;2023-03-14T03:57:51;5.10;;;3.70;;
21089;SDS011;10703;51.020;6.128;2023-03-14T04:00:18;7.17;;;3.53;;
21089;SDS011;10703;51.020;6.128;2023-03-14T04:02:44;9.47;;;3.73;;
21089;SDS011;10703;51.020;6.128;2023-03-14T04:05:11;4.60;;;3.43;;
21089;SDS011;10703;51.020;6.128;2023-03-14T04:07:38;3.80;;;3.50;;
21089;SDS011;10703;51.020;6.128;2023-03-14T04:10:04;4.40;;;4.00;;
21089;SDS011;10703;51.020;6.128;2023-03-14T04:12:31;3.77;;;3.50;;
21089;SDS011;10703;51.020;6.128;2023-03-14T04:14:58;6.90;;;3.90;;
21089;SDS011;10703;51.020;6.128;2023-03-14T04:17:24;3.73;;;3.47;;
21089;SDS011;10703;51.020;6.128;2023-03-14T04:19:51;3.73;;;3.53;;
21089;SDS011;10703;51.020;6.128;2023-03-14T04:22:20;3.50;;;3.30;;
21089;SDS011;10703;51.020;6.128;2023-03-14T04:24:46;4.10;;;3.70;;
21089;SDS011;10703;51.020;6.128;2023-03-14T04:27:13;3.87;;;3.40;;
21089;SDS011;10703;51.020;6.128;2023-03-14T04:29:41;3.47;;;3.27;;
21089;SDS011;10703;51.020;6.128;2023-03-14T04:32:08;3.83;;;3.60;;
21089;SDS011;10703;51.020;6.128;2023-03-14T04:34:35;4.47;;;3.93;;
21089;SDS011;10703;51.020;6.128;2023-03-14T04:37:01;3.77;;;3.47;;
21089;SDS011;10703;51.020;6.128;2023-03-14T04:39:28;3.60;;;3.40;;
21089;SDS011;10703;51.020;6.128;2023-03-14T04:41:55;4.20;;;3.80;;
21089;SDS011;10703;51.020;6.128;2023-03-14T04:44:21;3.70;;;3.50;;
21089;SDS011;10703;51.020;6.128;2023-03-14T04:46:48;3.60;;;3.30;;
21089;SDS011;10703;51.020;6.128;2023-03-14T04:49:14;3.60;;;3.40;;
21089;SDS011;10703;51.020;6.128;2023-03-14T04:51:41;3.73;;;3.43;;
21089;SDS011;10703;51.020;6.128;2023-03-14T04:54:07;4.07;;;3.70;;
21089;SDS011;10703;51.020;6.128;2023-03-14T04:56:34;3.70;;;3.50;;
21089;SDS011;10703;51.020;6.128;2023-03-14T04:59:01;4.20;;;3.77;;
21089;SDS011;10703;51.020;6.128;2023-03-14T05:01:28;3.90;;;3.60;;
21089;SDS011;10703;51.020;6.128;2023-03-14T05:03:55;3.70;;;3.50;;
21089;SDS011;10703;51.020;6.128;2023-03-14T05:06:21;3.90;;;3.60;;
21089;SDS011;10703;51.020;6.128;2023-03-14T05:08:48;4.20;;;3.90;;
21089;SDS011;10703;51.020;6.128;2023-03-14T05:11:15;4.17;;;3.77;;
21089;SDS011;10703;51.020;6.128;2023-03-14T05:13:41;3.57;;;3.37;;
21089;SDS011;10703;51.020;6.128;2023-03-14T05:16:09;3.70;;;3.40;;
21089;SDS011;10703;51.020;6.128;2023-03-14T05:18:37;3.80;;;3.50;;
21089;SDS011;10703;51.020;6.128;2023-03-14T05:21:04;3.63;;;3.30;;
21089;SDS011;10703;51.020;6.128;2023-03-14T05:23:30;3.60;;;3.40;;
21089;SDS011;10703;51.020;6.128;2023-03-14T05:25:57;3.47;;;3.30;;
21089;SDS011;10703;51.020;6.128;2023-03-14T05:28:24;4.03;;;3.83;;
21089;SDS011;10703;51.020;6.128;2023-03-14T05:30:50;3.37;;;3.20;;
21089;SDS011;10703;51.020;6.128;2023-03-14T05:33:17;3.63;;;3.10;;
21089;SDS011;10703;51.020;6.128;2023-03-14T05:35:43;3.77;;;3.50;;
21089;SDS011;10703;51.020;6.128;2023-03-14T05:38:10;3.37;;;3.20;;
21089;SDS011;10703;51.020;6.128;2023-03-14T05:40:37;3.50;;;3.30;;
21089;SDS011;10703;51.020;6.128;2023-03-14T05:43:03;3.20;;;2.90;;
21089;SDS011;10703;51.020;6.128;2023-03-14T05:45:30;3.60;;;3.40;;
21089;SDS011;10703;51.020;6.128;2023-03-14T05:47:59;3.30;;;3.20;;
21089;SDS011;10703;51.020;6.128;2023-03-14T05:50:26;3.33;;;3.20;;
21089;SDS011;10703;51.020;6.128;2023-03-14T05:52:52;3.57;;;3.37;;
21089;SDS011;10703;51.020;6.128;2023-03-14T05:55:19;3.43;;;3.23;;
21089;SDS011;10703;51.020;6.128;2023-03-14T05:57:46;3.80;;;3.50;;
21089;SDS011;10703;51.020;6.128;2023-03-14T06:00:12;3.40;;;3.20;;
21089;SDS011;10703;51.020;6.128;2023-03-14T06:02:39;3.50;;;3.30;;
21089;SDS011;10703;51.020;6.128;2023-03-14T06:05:06;3.47;;;3.20;;
21089;SDS011;10703;51.020;6.128;2023-03-14T06:07:33;3.53;;;3.33;;
21089;SDS011;10703;51.020;6.128;2023-03-14T06:10:00;3.33;;;3.13;;
21089;SDS011;10703;51.020;6.128;2023-03-14T06:12:26;4.37;;;4.07;;
21089;SDS011;10703;51.020;6.128;2023-03-14T06:14:53;3.20;;;3.10;;
21089;SDS011;10703;51.020;6.128;2023-03-14T06:17:19;3.00;;;2.90;;
21089;SDS011;10703;51.020;6.128;2023-03-14T06:19:46;3.67;;;3.47;;
21089;SDS011;10703;51.020;6.128;2023-03-14T06:22:13;3.40;;;3.20;;
21089;SDS011;10703;51.020;6.128;2023-03-14T06:24:39;3.40;;;3.30;;
21089;SDS011;10703;51.020;6.128;2023-03-14T06:27:06;3.50;;;3.30;;
21089;SDS011;10703;51.020;6.128;2023-03-14T06:29:33;3.70;;;3.50;;
21089;SDS011;10703;51.020;6.128;2023-03-14T06:31:59;3.37;;;3.23;;
21089;SDS011;10703;51.020;6.128;2023-03-14T06:34:26;3.70;;;3.50;;
21089;SDS011;10703;51.020;6.128;2023-03-14T06:36:52;3.20;;;3.10;;
21089;SDS011;10703;51.020;6.128;2023-03-14T06:39:19;3.47;;;3.30;;
21089;SDS011;10703;51.020;6.128;2023-03-14T06:41:45;3.60;;;3.30;;
21089;SDS011;10703;51.020;6.128;2023-03-14T06:44:13;3.30;;;3.10;;
21089;SDS011;10703;51.020;6.128;2023-03-14T06:46:39;3.50;;;3.30;;
21089;SDS011;10703;51.020;6.128;2023-03-14T06:49:06;3.57;;;3.37;;
21089;SDS011;10703;51.020;6.128;2023-03-14T06:51:33;3.50;;;3.30;;
21089;SDS011;10703;51.020;6.128;2023-03-14T06:54:00;3.60;;;3.40;;
21089;SDS011;10703;51.020;6.128;2023-03-14T06:56:26;3.40;;;3.20;;
21089;SDS011;10703;51.020;6.128;2023-03-14T06:58:53;3.33;;;3.13;;
21089;SDS011;10703;51.020;6.128;2023-03-14T07:01:25;3.67;;;3.47;;
21089;SDS011;10703;51.020;6.128;2023-03-14T07:03:53;3.50;;;3.30;;
21089;SDS011;10703;51.020;6.128;2023-03-14T07:06:20;3.47;;;3.30;;
21089;SDS011;10703;51.020;6.128;2023-03-14T07:08:47;3.83;;;3.63;;
21089;SDS011;10703;51.020;6.128;2023-03-14T07:11:14;3.77;;;3.57;;
21089;SDS011;10703;51.020;6.128;2023-03-14T07:13:41;3.80;;;3.60;;
21089;SDS011;10703;51.020;6.128;2023-03-14T07:16:07;3.80;;;3.60;;
21089;SDS011;10703;51.020;6.128;2023-03-14T07:18:35;3.93;;;3.63;;
21089;SDS011;10703;51.020;6.128;2023-03-14T07:21:02;3.67;;;3.47;;
21089;SDS011;10703;51.020;6.128;2023-03-14T07:23:29;4.07;;;3.70;;
21089;SDS011;10703;51.020;6.128;2023-03-14T07:25:56;3.40;;;3.20;;
21089;SDS011;10703;51.020;6.128;2023-03-14T07:28:23;4.20;;;3.80;;
21089;SDS011;10703;51.020;6.128;2023-03-14T07:30:49;3.70;;;3.50;;
21089;SDS011;10703;51.020;6.128;2023-03-14T07:33:16;3.70;;;3.50;;
21089;SDS011;10703;51.020;6.128;2023-03-14T07:35:43;3.77;;;3.53;;
21089;SDS011;10703;51.020;6.128;2023-03-14T07:38:09;3.73;;;3.37;;
21089;SDS011;10703;51.020;6.128;2023-03-14T07:40:36;3.80;;;3.60;;
21089;SDS011;10703;51.020;6.128;2023-03-14T07:43:03;3.83;;;3.63;;
21089;SDS011;10703;51.020;6.128;2023-03-14T07:45:29;5.53;;;3.90;;
21089;SDS011;10703;51.020;6.128;2023-03-14T07:47:56;4.40;;;4.00;;
21089;SDS011;10703;51.020;6.128;2023-03-14T07:50:24;4.40;;;4.10;;
21089;SDS011;10703;51.020;6.128;2023-03-14T07:52:51;3.93;;;3.70;;
21089;SDS011;10703;51.020;6.128;2023-03-14T07:55:18;3.70;;;3.40;;
21089;SDS011;10703;51.020;6.128;2023-03-14T07:57:44;3.80;;;3.60;;
21089;SDS011;10703;51.020;6.128;2023-03-14T08:00:11;3.60;;;3.40;;
21089;SDS011;10703;51.020;6.128;2023-03-14T08:02:41;3.33;;;3.13;;
21089;SDS011;10703;51.020;6.128;2023-03-14T08:05:08;4.13;;;3.83;;
21089;SDS011;10703;51.020;6.128;2023-03-14T08:07:35;4.00;;;3.80;;
21089;SDS011;10703;51.020;6.128;2023-03-14T08:10:02;3.80;;;3.60;;
21089;SDS011;10703;51.020;6.128;2023-03-14T08:12:29;4.07;;;3.87;;
21089;SDS011;10703;51.020;6.128;2023-03-14T08:14:55;4.20;;;3.90;;
21089;SDS011;10703;51.020;6.128;2023-03-14T08:17:22;4.00;;;3.80;;
21089;SDS011;10703;51.020;6.128;2023-03-14T08:19:48;4.20;;;4.00;;
21089;SDS011;10703;51.020;6.128;2023-03-14T08:22:15;4.50;;;4.10;;
21089;SDS011;10703;51.020;6.128;2023-03-14T08:24:45;3.90;;;3.70;;
21089;SDS011;10703;51.020;6.128;2023-03-14T08:27:11;4.30;;;4.00;;
21089;SDS011;10703;51.020;6.128;2023-03-14T08:29:40;4.07;;;3.87;;
21089;SDS011;10703;51.020;6.128;2023-03-14T08:32:07;4.17;;;3.87;;
21089;SDS011;10703;51.020;6.128;2023-03-14T08:34:34;4.97;;;4.47;;
21089;SDS011;10703;51.020;6.128;2023-03-14T08:37:01;4.50;;;4.20;;
21089;SDS011;10703;51.020;6.128;2023-03-14T08:39:31;3.90;;;3.70;;
21089;SDS011;10703;51.020;6.128;2023-03-14T08:41:58;4.67;;;4.27;;
21089;SDS011;10703;51.020;6.128;2023-03-14T08:44:24;3.70;;;3.50;;
21089;SDS011;10703;51.020;6.128;2023-03-14T08:46:51;3.97;;;3.73;;
21089;SDS011;10703;51.020;6.128;2023-03-14T08:49:17;4.07;;;3.87;;
21089;SDS011;10703;51.020;6.128;2023-03-14T08:51:44;3.87;;;3.67;;
21089;SDS011;10703;51.020;6.128;2023-03-14T08:54:11;4.20;;;4.00;;
21089;SDS011;10703;51.020;6.128;2023-03-14T08:56:37;4.37;;;4.07;;
21089;SDS011;10703;51.020;6.128;2023-03-14T08:59:04;4.00;;;3.80;;
21089;SDS011;10703;51.020;6.128;2023-03-14T09:01:31;4.60;;;4.20;;
21089;SDS011;10703;51.020;6.128;2023-03-14T09:03:58;4.30;;;4.10;;
21089;SDS011;10703;51.020;6.128;2023-03-14T09:06:25;4.30;;;4.10;;
21089;SDS011;10703;51.020;6.128;2023-03-14T09:08:51;4.10;;;3.90;;
21089;SDS011;10703;51.020;6.128;2023-03-14T09:11:18;4.50;;;4.20;;
21089;SDS011;10703;51.020;6.128;2023-03-14T09:13:44;4.57;;;4.17;;
21089;SDS011;10703;51.020;6.128;2023-03-14T09:16:11;4.17;;;3.97;;
21089;SDS011;10703;51.020;6.128;2023-03-14T09:18:38;4.50;;;4.20;;
21089;SDS011;10703;51.020;6.128;2023-03-14T09:21:04;4.40;;;4.20;;
21089;SDS011;10703;51.020;6.128;2023-03-14T09:23:33;4.20;;;4.00;;
21089;SDS011;10703;51.020;6.128;2023-03-14T09:25:59;4.60;;;4.20;;
21089;SDS011;10703;51.020;6.128;2023-03-14T09:28:26;4.77;;;4.40;;
21089;SDS011;10703;51.020;6.128;2023-03-14T09:30:53;3.87;;;3.67;;
21089;SDS011;10703;51.020;6.128;2023-03-14T09:33:20;4.50;;;4.10;;
21089;SDS011;10703;51.020;6.128;2023-03-14T09:35:47;4.30;;;4.00;;
21089;SDS011;10703;51.020;6.128;2023-03-14T09:38:13;4.50;;;4.20;;
21089;SDS011;10703;51.020;6.128;2023-03-14T09:40:41;6.17;;;4.23;;
21089;SDS011;10703;51.020;6.128;2023-03-14T09:43:09;4.33;;;4.03;;
21089;SDS011;10703;51.020;6.128;2023-03-14T09:45:41;4.47;;;4.07;;
21089;SDS011;10703;51.020;6.128;2023-03-14T09:48:14;4.87;;;4.57;;
21089;SDS011;10703;51.020;6.128;2023-03-14T09:50:51;4.50;;;4.20;;
21089;SDS011;10703;51.020;6.128;2023-03-14T09:53:21;4.80;;;4.50;;
21089;SDS011;10703;51.020;6.128;2023-03-14T09:55:51;4.40;;;4.20;;
21089;SDS011;10703;51.020;6.128;2023-03-14T09:58:20;4.20;;;4.00;;
21089;SDS011;10703;51.020;6.128;2023-03-14T10:00:52;4.23;;;3.97;;
21089;SDS011;10703;51.020;6.128;2023-03-14T10:03:26;5.00;;;4.60;;
21089;SDS011;10703;51.020;6.128;2023-03-14T10:05:57;4.50;;;4.20;;
21089;SDS011;10703;51.020;6.128;2023-03-14T10:08:25;4.93;;;4.00;;
21089;SDS011;10703;51.020;6.128;2023-03-14T10:10:51;4.30;;;4.00;;
21089;SDS011;10703;51.020;6.128;2023-03-14T10:13:26;4.43;;;4.13;;
21089;SDS011;10703;51.020;6.128;2023-03-14T10:16:02;4.30;;;4.00;;
21089;SDS011;10703;51.020;6.128;2023-03-14T10:18:32;4.00;;;3.80;;
21089;SDS011;10703;51.020;6.128;2023-03-14T10:21:20;4.50;;;4.10;;
21089;SDS011;10703;51.020;6.128;2023-03-14T10:23:54;4.20;;;4.00;;
21089;SDS011;10703;51.020;6.128;2023-03-14T10:26:33;6.83;;;4.20;;
21089;SDS011;10703;51.020;6.128;2023-03-14T10:29:08;4.40;;;4.10;;
21089;SDS011;10703;51.020;6.128;2023-03-14T10:34:45;4.40;;;4.10;;
21089;SDS011;10703;51.020;6.128;2023-03-14T10:37:52;3.77;;;3.57;;
21089;SDS011;10703;51.020;6.128;2023-03-14T10:40:28;4.30;;;4.10;;
21089;SDS011;10703;51.020;6.128;2023-03-14T10:42:58;4.70;;;4.40;;
21089;SDS011;10703;51.020;6.128;2023-03-14T10:45:43;4.80;;;4.00;;
21089;SDS011;10703;51.020;6.128;2023-03-14T10:50:57;4.60;;;4.40;;
21089;SDS011;10703;51.020;6.128;2023-03-14T10:53:32;4.73;;;4.40;;
21089;SDS011;10703;51.020;6.128;2023-03-14T10:56:02;4.60;;;4.30;;
21089;SDS011;10703;51.020;6.128;2023-03-14T10:58:31;4.63;;;4.30;;
21089;SDS011;10703;51.020;6.128;2023-03-14T11:03:42;5.10;;;4.70;;
21089;SDS011;10703;51.020;6.128;2023-03-14T11:06:20;6.77;;;5.53;;
21089;SDS011;10703;51.020;6.128;2023-03-14T11:08:59;5.30;;;4.90;;
21089;SDS011;10703;51.020;6.128;2023-03-14T11:11:33;5.17;;;4.73;;
21089;SDS011;10703;51.020;6.128;2023-03-14T11:14:15;5.13;;;4.83;;
21089;SDS011;10703;51.020;6.128;2023-03-14T11:17:05;4.93;;;4.60;;
21089;SDS011;10703;51.020;6.128;2023-03-14T11:19:49;9.00;;;4.80;;
21089;SDS011;10703;51.020;6.128;2023-03-14T11:22:34;5.00;;;4.63;;
21089;SDS011;10703;51.020;6.128;2023-03-14T11:25:30;4.77;;;4.53;;
21089;SDS011;10703;51.020;6.128;2023-03-14T11:30:47;4.87;;;4.53;;
21089;SDS011;10703;51.020;6.128;2023-03-14T11:34:07;4.83;;;4.43;;
21089;SDS011;10703;51.020;6.128;2023-03-14T11:36:26;4.70;;;4.37;;
21089;SDS011;10703;51.020;6.128;2023-03-14T11:39:15;7.53;;;5.07;;
21089;SDS011;10703;51.020;6.128;2023-03-14T11:41:44;4.70;;;4.40;;
21089;SDS011;10703;51.020;6.128;2023-03-14T11:44:20;4.80;;;4.50;;
21089;SDS011;10703;51.020;6.128;2023-03-14T11:46:52;7.40;;;4.87;;
21089;SDS011;10703;51.020;6.128;2023-03-14T11:52:34;5.13;;;4.63;;
21089;SDS011;10703;51.020;6.128;2023-03-14T11:55:33;5.10;;;4.60;;
21089;SDS011;10703;51.020;6.128;2023-03-14T11:58:13;5.37;;;4.50;;
21089;SDS011;10703;51.020;6.128;2023-03-14T12:00:48;5.07;;;4.30;;
21089;SDS011;10703;51.020;6.128;2023-03-14T12:08:46;9.57;;;5.63;;
21089;SDS011;10703;51.020;6.128;2023-03-14T12:14:24;9.53;;;5.10;;
21089;SDS011;10703;51.020;6.128;2023-03-14T12:16:54;7.83;;;5.10;;
21089;SDS011;10703;51.020;6.128;2023-03-14T12:19:45;15.87;;;5.80;;
21089;SDS011;10703;51.020;6.128;2023-03-14T12:22:17;6.73;;;5.03;;
21089;SDS011;10703;51.020;6.128;2023-03-14T12:24:55;13.00;;;5.50;;
21089;SDS011;10703;51.020;6.128;2023-03-14T12:27:45;5.43;;;4.90;;
21089;SDS011;10703;51.020;6.128;2023-03-14T12:30:22;9.43;;;5.00;;
21089;SDS011;10703;51.020;6.128;2023-03-14T12:35:39;6.30;;;4.93;;
21089;SDS011;10703;51.020;6.128;2023-03-14T12:38:09;10.93;;;5.83;;
21089;SDS011;10703;51.020;6.128;2023-03-14T12:43:30;8.70;;;5.57;;
21089;SDS011;10703;51.020;6.128;2023-03-14T12:46:42;10.27;;;5.03;;
21089;SDS011;10703;51.020;6.128;2023-03-14T12:51:38;12.13;;;5.33;;
21089;SDS011;10703;51.020;6.128;2023-03-14T12:54:25;10.30;;;5.57;;
21089;SDS011;10703;51.020;6.128;2023-03-14T13:04:59;4.90;;;4.60;;
21089;SDS011;10703;51.020;6.128;2023-03-14T13:12:29;14.47;;;6.07;;
21089;SDS011;10703;51.020;6.128;2023-03-14T13:15:12;12.00;;;5.37;;
21089;SDS011;10703;51.020;6.128;2023-03-14T13:17:48;10.17;;;5.83;;
21089;SDS011;10703;51.020;6.128;2023-03-14T13:20:30;16.83;;;6.20;;
21089;SDS011;10703;51.020;6.128;2023-03-14T13:23:03;16.43;;;6.63;;
21089;SDS011;10703;51.020;6.128;2023-03-14T13:25:31;13.03;;;6.37;;
21089;SDS011;10703;51.020;6.128;2023-03-14T13:28:00;15.80;;;6.23;;
21089;SDS011;10703;51.020;6.128;2023-03-14T13:30:35;15.20;;;6.00;;
21089;SDS011;10703;51.020;6.128;2023-03-14T13:33:05;11.70;;;6.00;;
21089;SDS011;10703;51.020;6.128;2023-03-14T13:35:40;17.20;;;6.53;;
21089;SDS011;10703;51.020;6.128;2023-03-14T13:38:15;18.27;;;6.20;;
21089;SDS011;10703;51.020;6.128;2023-03-14T13:40:43;13.77;;;6.03;;
21089;SDS011;10703;51.020;6.128;2023-03-14T13:43:16;13.27;;;6.13;;
21089;SDS011;10703;51.020;6.128;2023-03-14T13:45:45;14.70;;;6.03;;
21089;SDS011;10703;51.020;6.128;2023-03-14T13:48:15;18.50;;;6.60;;
21089;SDS011;10703;51.020;6.128;2023-03-14T13:50:49;14.13;;;6.13;;
21089;SDS011;10703;51.020;6.128;2023-03-14T13:53:19;13.67;;;6.53;;
21089;SDS011;10703;51.020;6.128;2023-03-14T13:55:46;18.13;;;6.60;;
21089;SDS011;10703;51.020;6.128;2023-03-14T13:58:19;12.60;;;6.63;;
21089;SDS011;10703;51.020;6.128;2023-03-14T14:03:42;14.23;;;6.37;;
21089;SDS011;10703;51.020;6.128;2023-03-14T14:06:25;16.57;;;6.00;;
21089;SDS011;10703;51.020;6.128;2023-03-14T14:08:55;10.07;;;5.93;;
21089;SDS011;10703;51.020;6.128;2023-03-14T14:11:32;14.07;;;6.20;;
21089;SDS011;10703;51.020;6.128;2023-03-14T14:14:35;18.00;;;6.83;;
21089;SDS011;10703;51.020;6.128;2023-03-14T14:17:09;17.37;;;6.80;;
21089;SDS011;10703;51.020;6.128;2023-03-14T14:19:39;12.23;;;5.83;;
21089;SDS011;10703;51.020;6.128;2023-03-14T14:22:10;14.67;;;6.80;;
21089;SDS011;10703;51.020;6.128;2023-03-14T14:24:38;12.17;;;6.40;;
21089;SDS011;10703;51.020;6.128;2023-03-14T14:29:43;14.20;;;5.80;;
21089;SDS011;10703;51.020;6.128;2023-03-14T14:32:21;12.93;;;6.27;;
21089;SDS011;10703;51.020;6.128;2023-03-14T14:37:31;15.30;;;6.43;;
21089;SDS011;10703;51.020;6.128;2023-03-14T14:42:46;21.90;;;6.30;;
21089;SDS011;10703;51.020;6.128;2023-03-14T14:45:22;12.60;;;6.17;;
21089;SDS011;10703;51.020;6.128;2023-03-14T14:47:51;19.80;;;7.00;;
21089;SDS011;10703;51.020;6.128;2023-03-14T14:52:58;12.17;;;6.57;;
21089;SDS011;10703;51.020;6.128;2023-03-14T14:55:31;16.43;;;7.73;;
21089;SDS011;10703;51.020;6.128;2023-03-14T14:58:12;15.00;;;6.47;;
21089;SDS011;10703;51.020;6.128;2023-03-14T15:00:53;11.27;;;6.10;;
21089;SDS011;10703;51.020;6.128;2023-03-14T15:03:20;18.50;;;6.87;;
21089;SDS011;10703;51.020;6.128;2023-03-14T15:05:47;17.27;;;6.87;;
21089;SDS011;10703;51.020;6.128;2023-03-14T15:08:13;16.63;;;6.70;;
21089;SDS011;10703;51.020;6.128;2023-03-14T15:10:40;22.00;;;7.57;;
21089;SDS011;10703;51.020;6.128;2023-03-14T15:13:07;15.10;;;6.40;;
21089;SDS011;10703;51.020;6.128;2023-03-14T15:15:34;16.70;;;6.93;;
21089;SDS011;10703;51.020;6.128;2023-03-14T15:18:00;12.60;;;6.70;;
21089;SDS011;10703;51.020;6.128;2023-03-14T15:20:27;15.57;;;6.90;;
21089;SDS011;10703;51.020;6.128;2023-03-14T15:22:54;19.00;;;6.60;;
21089;SDS011;10703;51.020;6.128;2023-03-14T15:25:20;14.17;;;6.53;;
21089;SDS011;10703;51.020;6.128;2023-03-14T15:28:12;18.50;;;7.07;;
21089;SDS011;10703;51.020;6.128;2023-03-14T15:30:46;17.97;;;7.13;;
21089;SDS011;10703;51.020;6.128;2023-03-14T15:33:21;19.67;;;6.97;;
21089;SDS011;10703;51.020;6.128;2023-03-14T15:35:48;15.23;;;6.97;;
21089;SDS011;10703;51.020;6.128;2023-03-14T15:38:16;9.20;;;6.27;;
21089;SDS011;10703;51.020;6.128;2023-03-14T15:40:49;11.37;;;5.77;;
21089;SDS011;10703;51.020;6.128;2023-03-14T15:43:16;17.57;;;6.43;;
21089;SDS011;10703;51.020;6.128;2023-03-14T15:45:44;13.33;;;6.53;;
21089;SDS011;10703;51.020;6.128;2023-03-14T15:48:12;7.40;;;5.37;;
21089;SDS011;10703;51.020;6.128;2023-03-14T15:50:41;9.97;;;6.07;;
21089;SDS011;10703;51.020;6.128;2023-03-14T15:53:09;11.80;;;6.00;;
21089;SDS011;10703;51.020;6.128;2023-03-14T15:55:36;14.83;;;6.20;;
21089;SDS011;10703;51.020;6.128;2023-03-14T15:58:03;12.13;;;5.80;;
21089;SDS011;10703;51.020;6.128;2023-03-14T16:00:30;15.63;;;5.67;;
21089;SDS011;10703;51.020;6.128;2023-03-14T16:02:56;13.63;;;6.33;;
21089;SDS011;10703;51.020;6.128;2023-03-14T16:05:23;11.93;;;5.43;;
21089;SDS011;10703;51.020;6.128;2023-03-14T16:07:50;7.93;;;5.77;;
21089;SDS011;10703;51.020;6.128;2023-03-14T16:10:16;8.83;;;6.00;;